createdAt,value
2018-07-15T00:00:30.116Z,0.00
2018-07-15T00:01:30.124Z,0.00
2018-07-15T00:02:30.122Z,0.00
2018-07-15T00:03:30.078Z,0.00
2018-07-15T00:04:30.072Z,0.00
2018-07-15T00:05:30.058Z,0.00
2018-07-15T00:06:30.047Z,0.00
2018-07-15T00:07:30.076Z,0.00
2018-07-15T00:08:30.035Z,0.00
2018-07-15T00:09:30.011Z,0.00
2018-07-15T00:10:30.018Z,0.00
2018-07-15T00:11:29.992Z,0.00
2018-07-15T00:12:30.001Z,0.00
2018-07-15T00:13:29.967Z,0.00
2018-07-15T00:14:29.958Z,0.00
2018-07-15T00:15:29.965Z,0.00
2018-07-15T00:16:29.933Z,0.00
2018-07-15T00:17:29.925Z,0.00
2018-07-15T00:18:29.932Z,0.00
2018-07-15T00:19:29.900Z,0.00
2018-07-15T00:20:29.888Z,0.00
2018-07-15T00:21:29.883Z,0.00
2018-07-15T00:22:29.868Z,0.00
2018-07-15T00:23:29.887Z,0.00
2018-07-15T00:24:29.853Z,0.00
2018-07-15T00:25:29.834Z,0.00
2018-07-15T00:26:29.822Z,0.00
2018-07-15T00:27:29.815Z,0.00
2018-07-15T00:28:29.806Z,0.00
2018-07-15T00:29:29.807Z,0.00
2018-07-15T00:30:29.777Z,0.00
2018-07-15T00:31:29.768Z,0.00
2018-07-15T00:32:29.758Z,0.00
2018-07-15T00:33:29.747Z,0.00
2018-07-15T00:34:29.753Z,0.00
2018-07-15T00:35:29.727Z,0.00
2018-07-15T00:36:29.713Z,0.00
2018-07-15T00:37:29.702Z,0.00
2018-07-15T00:38:29.714Z,0.00
2018-07-15T00:39:29.681Z,0.00
2018-07-15T00:40:29.695Z,0.00
2018-07-15T00:41:29.659Z,0.00
2018-07-15T00:42:29.648Z,0.00
2018-07-15T00:43:29.636Z,0.00
2018-07-15T00:44:29.623Z,0.00
2018-07-15T00:45:29.620Z,0.00
2018-07-15T00:46:29.625Z,0.00
2018-07-15T00:47:29.591Z,0.00
2018-07-15T00:48:29.609Z,0.00
2018-07-15T00:49:29.579Z,0.00
2018-07-15T00:50:29.560Z,0.00
2018-07-15T00:51:29.553Z,0.00
2018-07-15T00:52:29.554Z,0.00
2018-07-15T00:53:29.526Z,0.00
2018-07-15T00:54:29.513Z,0.00
2018-07-15T00:55:29.505Z,0.00
2018-07-15T00:56:29.496Z,0.00
2018-07-15T00:57:29.987Z,0.00
2018-07-15T00:58:29.471Z,0.00
2018-07-15T00:59:29.462Z,0.00
2018-07-15T01:00:29.450Z,0.00
2018-07-15T01:01:29.452Z,0.00
2018-07-15T01:02:29.427Z,0.00
2018-07-15T01:03:29.446Z,0.00
2018-07-15T01:04:29.403Z,0.00
2018-07-15T01:05:29.391Z,0.00
2018-07-15T01:06:29.391Z,0.00
2018-07-15T01:07:29.372Z,0.00
2018-07-15T01:08:29.362Z,0.00
2018-07-15T01:09:29.368Z,0.00
2018-07-15T01:10:29.335Z,0.00
2018-07-15T01:11:29.329Z,0.00
2018-07-15T01:12:29.317Z,0.00
2018-07-15T01:13:29.308Z,0.00
2018-07-15T01:14:29.339Z,0.00
2018-07-15T01:15:29.281Z,0.00
2018-07-15T01:16:29.268Z,0.00
2018-07-15T01:17:29.257Z,0.00
2018-07-15T01:18:29.247Z,0.00
2018-07-15T01:19:29.237Z,0.00
2018-07-15T01:20:29.250Z,0.00
2018-07-15T01:21:29.213Z,0.00
2018-07-15T01:22:29.203Z,0.00
2018-07-15T01:23:29.192Z,0.00
2018-07-15T01:24:29.201Z,0.00
2018-07-15T01:25:29.175Z,0.00
2018-07-15T01:26:29.174Z,0.00
2018-07-15T01:27:29.149Z,0.00
2018-07-15T01:28:29.139Z,0.00
2018-07-15T01:29:29.127Z,0.00
2018-07-15T01:30:29.116Z,0.00
2018-07-15T01:31:29.128Z,0.00
2018-07-15T01:32:29.092Z,0.00
2018-07-15T01:33:29.084Z,0.00
2018-07-15T01:34:29.075Z,0.00
2018-07-15T01:35:29.058Z,0.00
2018-07-15T01:36:29.056Z,0.00
2018-07-15T01:37:29.077Z,0.00
2018-07-15T01:38:29.029Z,0.00
2018-07-15T01:39:29.017Z,0.00
2018-07-15T01:40:29.006Z,0.00
2018-07-15T01:41:28.995Z,0.00
2018-07-15T01:42:28.981Z,0.00
2018-07-15T01:43:28.985Z,0.00
2018-07-15T01:44:28.960Z,0.00
2018-07-15T01:45:28.950Z,0.00
2018-07-15T01:46:28.945Z,0.00
2018-07-15T01:47:28.947Z,0.00
2018-07-15T01:48:28.941Z,0.00
2018-07-15T01:49:28.905Z,0.00
2018-07-15T01:50:28.894Z,0.00
2018-07-15T01:51:28.885Z,0.00
2018-07-15T01:52:28.872Z,0.00
2018-07-15T01:53:28.863Z,0.00
2018-07-15T01:54:28.881Z,0.00
2018-07-15T01:55:28.842Z,0.00
2018-07-15T01:56:28.831Z,0.00
2018-07-15T01:57:28.819Z,0.00
2018-07-15T01:58:28.809Z,0.00
2018-07-15T01:59:28.795Z,0.00
2018-07-15T02:00:28.828Z,0.00
2018-07-15T02:01:28.773Z,0.00
2018-07-15T02:02:28.765Z,0.00
2018-07-15T02:03:28.757Z,0.00
2018-07-15T02:04:28.740Z,0.00
2018-07-15T02:05:28.729Z,0.00
2018-07-15T02:06:28.736Z,0.00
2018-07-15T02:07:28.707Z,0.00
2018-07-15T02:08:28.698Z,0.00
2018-07-15T02:09:28.688Z,0.00
2018-07-15T02:10:28.718Z,0.00
2018-07-15T02:11:28.667Z,0.00
2018-07-15T02:12:28.653Z,0.00
2018-07-15T02:13:28.642Z,0.00
2018-07-15T02:14:28.636Z,0.00
2018-07-15T02:15:28.624Z,0.00
2018-07-15T02:16:28.630Z,0.00
2018-07-15T02:17:28.599Z,0.00
2018-07-15T02:18:28.593Z,0.00
2018-07-15T02:19:28.575Z,0.00
2018-07-15T02:20:28.567Z,0.00
2018-07-15T02:21:28.557Z,0.00
2018-07-15T02:22:28.569Z,0.00
2018-07-15T02:23:28.543Z,0.00
2018-07-15T02:24:28.522Z,0.00
2018-07-15T02:25:28.511Z,0.00
2018-07-15T02:26:28.501Z,0.00
2018-07-15T02:27:28.515Z,0.00
2018-07-15T02:28:28.498Z,0.00
2018-07-15T02:29:28.473Z,0.00
2018-07-15T02:30:28.455Z,0.00
2018-07-15T02:31:28.448Z,0.00
2018-07-15T02:32:28.443Z,0.00
2018-07-15T02:33:28.467Z,0.00
2018-07-15T02:34:28.414Z,0.00
2018-07-15T02:35:28.407Z,0.00
2018-07-15T02:36:28.390Z,0.00
2018-07-15T02:37:28.378Z,0.00
2018-07-15T02:38:28.368Z,0.00
2018-07-15T02:39:28.380Z,0.00
2018-07-15T02:40:28.349Z,0.00
2018-07-15T02:41:28.337Z,0.00
2018-07-15T02:42:28.327Z,0.00
2018-07-15T02:43:28.313Z,0.00
2018-07-15T02:44:28.325Z,0.00
2018-07-15T02:45:28.291Z,0.00
2018-07-15T02:46:28.302Z,0.00
2018-07-15T02:47:28.268Z,0.00
2018-07-15T02:48:28.264Z,0.00
2018-07-15T02:49:28.252Z,0.00
2018-07-15T02:50:28.254Z,0.00
2018-07-15T02:51:28.229Z,0.00
2018-07-15T02:52:28.216Z,0.00
2018-07-15T02:53:28.206Z,0.00
2018-07-15T02:54:28.191Z,0.00
2018-07-15T02:55:28.210Z,0.00
2018-07-15T02:56:28.197Z,0.00
2018-07-15T02:57:28.158Z,0.00
2018-07-15T02:58:28.180Z,0.00
2018-07-15T02:59:28.142Z,0.00
2018-07-15T03:00:28.129Z,0.00
2018-07-15T03:01:28.166Z,0.00
2018-07-15T03:02:28.107Z,0.00
2018-07-15T03:03:28.095Z,0.00
2018-07-15T03:04:28.083Z,0.00
2018-07-15T03:05:28.072Z,0.00
2018-07-15T03:06:28.070Z,0.00
2018-07-15T03:07:28.065Z,0.00
2018-07-15T03:08:28.043Z,0.00
2018-07-15T03:09:28.045Z,0.00
2018-07-15T03:10:28.050Z,0.00
2018-07-15T03:11:28.010Z,0.00
2018-07-15T03:12:28.026Z,0.00
2018-07-15T03:13:27.984Z,0.00
2018-07-15T03:14:27.973Z,0.00
2018-07-15T03:15:27.966Z,0.00
2018-07-15T03:16:27.951Z,0.00
2018-07-15T03:17:27.995Z,0.00
2018-07-15T03:18:27.955Z,0.00
2018-07-15T03:19:27.946Z,0.00
2018-07-15T03:20:27.906Z,0.00
2018-07-15T03:21:27.898Z,0.00
2018-07-15T03:22:27.884Z,0.00
2018-07-15T03:23:27.873Z,0.00
2018-07-15T03:24:27.882Z,0.00
2018-07-15T03:25:27.852Z,0.00
2018-07-15T03:26:27.843Z,0.00
2018-07-15T03:27:27.831Z,0.00
2018-07-15T03:28:27.822Z,5.62
2018-07-15T03:29:27.865Z,5.62
2018-07-15T03:30:27.795Z,5.62
2018-07-15T03:31:27.795Z,5.62
2018-07-15T03:32:27.791Z,5.62
2018-07-15T03:33:27.763Z,5.62
2018-07-15T03:34:27.752Z,5.62
2018-07-15T03:35:27.765Z,5.62
2018-07-15T03:36:27.734Z,11.25
2018-07-15T03:37:27.723Z,11.25
2018-07-15T03:38:27.708Z,11.25
2018-07-15T03:39:27.698Z,11.25
2018-07-15T03:40:27.686Z,11.25
2018-07-15T03:41:27.707Z,11.25
2018-07-15T03:42:27.682Z,16.88
2018-07-15T03:43:27.655Z,16.88
2018-07-15T03:44:27.643Z,16.88
2018-07-15T03:45:27.631Z,16.88
2018-07-15T03:46:27.621Z,22.50
2018-07-15T03:47:27.646Z,22.50
2018-07-15T03:48:27.595Z,22.50
2018-07-15T03:49:27.586Z,28.12
2018-07-15T03:50:27.595Z,28.12
2018-07-15T03:51:27.568Z,28.12
2018-07-15T03:52:27.554Z,33.75
2018-07-15T03:53:27.561Z,33.75
2018-07-15T03:54:27.531Z,33.75
2018-07-15T03:55:27.525Z,39.38
2018-07-15T03:56:27.505Z,39.38
2018-07-15T03:57:27.503Z,39.38
2018-07-15T03:58:27.487Z,39.38
2018-07-15T03:59:27.486Z,45.00
2018-07-15T04:00:27.460Z,50.62
2018-07-15T04:01:27.453Z,56.25
2018-07-15T04:02:27.441Z,67.50
2018-07-15T04:03:27.441Z,67.50
2018-07-15T04:04:27.443Z,78.75
2018-07-15T04:05:27.412Z,84.38
2018-07-15T04:06:27.392Z,90.00
2018-07-15T04:07:27.386Z,90.00
2018-07-15T04:08:27.408Z,90.00
2018-07-15T04:09:27.361Z,95.62
2018-07-15T04:10:27.374Z,101.25
2018-07-15T04:11:27.338Z,101.25
2018-07-15T04:12:27.327Z,106.88
2018-07-15T04:13:27.316Z,112.50
2018-07-15T04:14:27.309Z,112.50
2018-07-15T04:15:27.295Z,118.12
2018-07-15T04:16:27.301Z,118.12
2018-07-15T04:17:27.276Z,129.38
2018-07-15T04:18:27.270Z,140.62
2018-07-15T04:19:27.255Z,146.25
2018-07-15T04:20:27.240Z,163.12
2018-07-15T04:21:27.263Z,180.00
2018-07-15T04:22:27.217Z,191.25
2018-07-15T04:23:27.204Z,196.88
2018-07-15T04:24:27.196Z,208.12
2018-07-15T04:25:27.185Z,213.75
2018-07-15T04:26:27.173Z,219.38
2018-07-15T04:27:27.196Z,225.00
2018-07-15T04:28:27.150Z,241.88
2018-07-15T04:29:27.143Z,270.00
2018-07-15T04:30:27.132Z,275.62
2018-07-15T04:31:27.128Z,309.38
2018-07-15T04:32:27.111Z,354.38
2018-07-15T04:33:27.111Z,405.00
2018-07-15T04:34:27.087Z,438.75
2018-07-15T04:35:27.081Z,455.62
2018-07-15T04:36:27.070Z,466.88
2018-07-15T04:37:27.051Z,461.25
2018-07-15T04:38:27.076Z,461.25
2018-07-15T04:39:27.030Z,461.25
2018-07-15T04:40:27.023Z,455.62
2018-07-15T04:41:27.026Z,450.00
2018-07-15T04:42:27.004Z,444.38
2018-07-15T04:43:27.021Z,438.75
2018-07-15T04:44:26.993Z,444.38
2018-07-15T04:45:26.969Z,438.75
2018-07-15T04:46:26.953Z,438.75
2018-07-15T04:47:26.946Z,421.88
2018-07-15T04:48:26.930Z,416.25
2018-07-15T04:49:26.919Z,410.62
2018-07-15T04:50:26.926Z,399.38
2018-07-15T04:51:26.897Z,405.00
2018-07-15T04:52:26.890Z,405.00
2018-07-15T04:53:26.884Z,416.25
2018-07-15T04:54:26.884Z,405.00
2018-07-15T04:55:26.885Z,399.38
2018-07-15T04:56:26.843Z,405.00
2018-07-15T04:57:26.844Z,405.00
2018-07-15T04:58:26.827Z,410.62
2018-07-15T04:59:26.813Z,416.25
2018-07-15T05:00:26.806Z,421.88
2018-07-15T05:01:26.829Z,416.25
2018-07-15T05:02:26.781Z,416.25
2018-07-15T05:03:26.765Z,410.62
2018-07-15T05:04:26.775Z,421.88
2018-07-15T05:05:26.743Z,444.38
2018-07-15T05:06:26.734Z,444.38
2018-07-15T05:07:26.741Z,438.75
2018-07-15T05:08:26.710Z,444.38
2018-07-15T05:09:26.700Z,455.62
2018-07-15T05:10:26.695Z,461.25
2018-07-15T05:11:26.678Z,472.50
2018-07-15T05:12:26.666Z,478.12
2018-07-15T05:13:26.667Z,472.50
2018-07-15T05:14:26.642Z,478.12
2018-07-15T05:15:26.646Z,511.88
2018-07-15T05:16:26.630Z,540.00
2018-07-15T05:17:26.612Z,545.62
2018-07-15T05:18:26.646Z,551.25
2018-07-15T05:19:26.588Z,573.75
2018-07-15T05:20:26.583Z,613.12
2018-07-15T05:21:26.571Z,635.62
2018-07-15T05:22:26.556Z,658.12
2018-07-15T05:23:26.545Z,663.75
2018-07-15T05:24:26.558Z,635.62
2018-07-15T05:25:26.549Z,607.50
2018-07-15T05:26:26.513Z,573.75
2018-07-15T05:27:26.500Z,562.50
2018-07-15T05:28:26.491Z,551.25
2018-07-15T05:29:26.479Z,551.25
2018-07-15T05:30:26.488Z,568.12
2018-07-15T05:31:26.462Z,646.88
2018-07-15T05:32:26.446Z,753.75
2018-07-15T05:33:26.447Z,804.38
2018-07-15T05:34:26.427Z,832.50
2018-07-15T05:35:26.445Z,871.88
2018-07-15T05:36:26.406Z,888.75
2018-07-15T05:37:26.400Z,905.62
2018-07-15T05:38:26.395Z,928.12
2018-07-15T05:39:26.378Z,939.38
2018-07-15T05:40:26.361Z,1130.62
2018-07-15T05:41:26.371Z,1192.50
2018-07-15T05:42:26.340Z,1080.00
2018-07-15T05:43:26.328Z,1001.25
2018-07-15T05:44:26.320Z,995.62
2018-07-15T05:45:26.308Z,1006.88
2018-07-15T05:46:26.295Z,1012.50
2018-07-15T05:47:26.306Z,1018.12
2018-07-15T05:48:26.300Z,1023.75
2018-07-15T05:49:26.266Z,1057.50
2018-07-15T05:50:26.255Z,1091.25
2018-07-15T05:51:26.243Z,1102.50
2018-07-15T05:52:26.259Z,1125.00
2018-07-15T05:53:26.222Z,1164.38
2018-07-15T05:54:26.215Z,1158.75
2018-07-15T05:55:26.200Z,1147.50
2018-07-15T05:56:26.191Z,1158.75
2018-07-15T05:57:26.180Z,1164.38
2018-07-15T05:58:26.219Z,1175.62
2018-07-15T05:59:26.159Z,1248.75
2018-07-15T06:00:26.150Z,1265.62
2018-07-15T06:01:26.142Z,1254.38
2018-07-15T06:02:26.130Z,1276.88
2018-07-15T06:03:26.133Z,1265.62
2018-07-15T06:04:26.125Z,1265.62
2018-07-15T06:05:26.098Z,1321.88
2018-07-15T06:06:26.094Z,1333.12
2018-07-15T06:07:26.077Z,1293.75
2018-07-15T06:08:26.064Z,1350.00
2018-07-15T06:09:26.082Z,1395.00
2018-07-15T06:10:26.059Z,1400.62
2018-07-15T06:11:26.054Z,1395.00
2018-07-15T06:12:26.027Z,1350.00
2018-07-15T06:13:26.013Z,1361.25
2018-07-15T06:14:26.001Z,1423.12
2018-07-15T06:15:26.020Z,1440.00
2018-07-15T06:16:25.979Z,1400.62
2018-07-15T06:17:25.966Z,1400.62
2018-07-15T06:18:25.957Z,1417.50
2018-07-15T06:19:25.945Z,1440.00
2018-07-15T06:20:25.936Z,1456.88
2018-07-15T06:21:25.974Z,1485.00
2018-07-15T06:22:25.920Z,1513.12
2018-07-15T06:23:25.905Z,1468.12
2018-07-15T06:24:25.910Z,1451.25
2018-07-15T06:25:25.886Z,1456.88
2018-07-15T06:26:25.874Z,1496.25
2018-07-15T06:27:25.880Z,1518.75
2018-07-15T06:28:25.856Z,1501.88
2018-07-15T06:29:25.843Z,1473.75
2018-07-15T06:30:25.833Z,1501.88
2018-07-15T06:31:25.822Z,1473.75
2018-07-15T06:32:25.832Z,1451.25
2018-07-15T06:33:25.803Z,1513.12
2018-07-15T06:34:25.813Z,1575.00
2018-07-15T06:35:25.784Z,1614.38
2018-07-15T06:36:25.773Z,1580.62
2018-07-15T06:37:25.763Z,1631.25
2018-07-15T06:38:25.776Z,1670.62
2018-07-15T06:39:25.740Z,1631.25
2018-07-15T06:40:25.729Z,1485.00
2018-07-15T06:41:25.727Z,1456.88
2018-07-15T06:42:25.711Z,1445.62
2018-07-15T06:43:25.707Z,1400.62
2018-07-15T06:44:25.703Z,1625.62
2018-07-15T06:45:25.681Z,1755.00
2018-07-15T06:46:25.667Z,1726.88
2018-07-15T06:47:25.660Z,1704.38
2018-07-15T06:48:25.648Z,1760.62
2018-07-15T06:49:25.678Z,1783.12
2018-07-15T06:50:25.628Z,1816.88
2018-07-15T06:51:25.616Z,1890.00
